createdAt,value
2019-04-14T00:01:41.272Z,96860.52
2019-04-14T00:06:37.820Z,96848.55
2019-04-14T00:11:34.408Z,96853.51
2019-04-14T00:16:29.219Z,96840.59
2019-04-14T00:21:23.828Z,96835.44
2019-04-14T00:26:29.367Z,96830.24
2019-04-14T00:31:24.293Z,96827.60
2019-04-14T00:36:37.232Z,96823.00
2019-04-14T00:41:46.719Z,96825.59
2019-04-14T00:46:40.856Z,96816.03
2019-04-14T00:51:38.262Z,96813.31
2019-04-14T00:56:32.336Z,96812.22
2019-04-14T01:01:26.971Z,96807.92
2019-04-14T01:06:22.841Z,96814.73
2019-04-14T01:11:18.181Z,96809.06
2019-04-14T01:16:17.425Z,96812.41
2019-04-14T01:21:09.313Z,96807.87
2019-04-14T01:26:05.048Z,96806.66
2019-04-14T01:30:59.740Z,96800.77
2019-04-14T01:35:55.285Z,96795.95
2019-04-14T01:40:50.999Z,96798.23
2019-04-14T01:45:58.169Z,96801.89
2019-04-14T01:50:49.651Z,96805.71
2019-04-14T01:55:54.905Z,96805.91
2019-04-14T02:00:57.618Z,96802.76
2019-04-14T02:05:52.401Z,96808.81
2019-04-14T02:10:47.805Z,96813.70
2019-04-14T02:15:42.713Z,96803.59
2019-04-14T02:20:38.198Z,96810.79
2019-04-14T02:25:33.902Z,96809.19
2019-04-14T02:30:36.277Z,96805.64
2019-04-14T02:35:56.188Z,96803.91
2019-04-14T02:40:55.914Z,96802.33
2019-04-14T02:45:50.573Z,96804.11
2019-04-14T02:50:45.188Z,96802.99
2019-04-14T02:55:46.863Z,96798.00
2019-04-14T03:05:35.853Z,96801.59
2019-04-14T03:10:31.950Z,96805.67
2019-04-14T03:15:35.349Z,96802.95
2019-04-14T03:20:32.182Z,96800.34
2019-04-14T03:25:22.751Z,96804.70
2019-04-14T03:40:58.515Z,96802.67
2019-04-14T03:45:45.131Z,96796.93
2019-04-14T03:55:22.278Z,96801.02
2019-04-14T04:00:03.568Z,96802.88
2019-04-14T04:04:58.342Z,96806.70
2019-04-14T04:09:54.588Z,96801.46
2019-04-14T04:14:49.183Z,96803.73
2019-04-14T04:19:45.418Z,96802.68
2019-04-14T04:24:44.097Z,96802.92
2019-04-14T04:29:44.124Z,96801.58
2019-04-14T04:34:40.339Z,96807.14
2019-04-14T04:39:39.773Z,96811.97
2019-04-14T04:44:35.666Z,96808.13
2019-04-14T04:49:31.262Z,96819.44
2019-04-14T04:54:27.862Z,96828.03
2019-04-14T04:59:23.437Z,96828.17
2019-04-14T05:04:18.231Z,96832.69
2019-04-14T05:09:14.499Z,96841.89
2019-04-14T05:14:10.922Z,96842.48
2019-04-14T05:19:18.559Z,96841.44
2019-04-14T05:24:02.840Z,96844.48
2019-04-14T05:28:57.455Z,96860.45
2019-04-14T05:33:53.238Z,96863.21
2019-04-14T05:38:48.120Z,96864.42
2019-04-14T05:43:49.765Z,96866.59
2019-04-14T05:48:40.288Z,96870.34
2019-04-14T05:53:35.137Z,96871.25
2019-04-14T05:58:29.793Z,96862.88
2019-04-14T06:03:25.566Z,96865.55
2019-04-14T06:08:20.331Z,96866.52
2019-04-14T06:13:14.991Z,96863.53
2019-04-14T06:18:09.637Z,96863.34
2019-04-14T06:23:04.291Z,96872.80
2019-04-14T06:27:58.963Z,96865.59
2019-04-14T06:32:54.095Z,96866.31
2019-04-14T06:37:58.966Z,96868.57
2019-04-14T06:42:53.560Z,96872.33
2019-04-14T06:47:48.157Z,96863.42
2019-04-14T06:52:42.748Z,96855.06
2019-04-14T06:57:37.349Z,96867.88
2019-04-14T07:02:31.922Z,96862.34
2019-04-14T07:07:26.506Z,96866.17
2019-04-14T07:12:21.127Z,96878.36
2019-04-14T07:17:15.717Z,96879.16
2019-04-14T07:22:10.309Z,96880.52
2019-04-14T07:27:04.974Z,96885.38
2019-04-14T07:32:17.227Z,96875.16
2019-04-14T07:37:29.204Z,96878.20
2019-04-14T07:42:31.252Z,96883.16
2019-04-14T07:47:45.282Z,96875.66
2019-04-14T07:52:41.508Z,96878.15
2019-04-14T07:57:40.144Z,96875.35
2019-04-14T08:02:36.373Z,96878.38
2019-04-14T08:07:30.975Z,96874.17
2019-04-14T08:12:25.570Z,96872.02
2019-04-14T08:17:20.171Z,96869.02
2019-04-14T08:22:14.768Z,96885.81
2019-04-14T08:27:09.359Z,96883.67
2019-04-14T08:32:04.038Z,96882.81
2019-04-14T08:36:58.638Z,96889.77
2019-04-14T08:42:06.344Z,96891.13
2019-04-14T08:47:11.349Z,96884.81
2019-04-14T08:52:09.994Z,96891.87
2019-04-14T08:57:06.775Z,96892.98
2019-04-14T09:02:04.020Z,96898.94
2019-04-14T09:07:15.086Z,96901.46
2019-04-14T09:12:20.034Z,96901.84
2019-04-14T09:17:14.607Z,96901.82
2019-04-14T09:22:09.363Z,96901.19
2019-04-14T09:27:03.957Z,96902.08
2019-04-14T09:31:59.235Z,96907.93
2019-04-14T09:36:53.827Z,96895.05
2019-04-14T09:41:48.414Z,96893.55
2019-04-14T09:46:43.030Z,96891.77
2019-04-14T09:51:37.624Z,96901.36
2019-04-14T09:56:32.221Z,96908.48
2019-04-14T10:01:26.854Z,96908.19
2019-04-14T10:06:21.511Z,96894.23
2019-04-14T10:11:16.104Z,96907.13
2019-04-14T10:16:10.857Z,96919.20
2019-04-14T10:21:16.698Z,96922.53
2019-04-14T10:26:01.840Z,96921.33
2019-04-14T10:30:56.446Z,96925.66
2019-04-14T10:35:51.045Z,96914.80
2019-04-14T10:40:45.628Z,96918.50
2019-04-14T10:45:40.211Z,96912.12
2019-04-14T10:50:34.881Z,96897.70
2019-04-14T10:55:29.470Z,96907.51
2019-04-14T11:00:24.060Z,96909.62
2019-04-14T11:05:18.662Z,96908.34
2019-04-14T11:10:14.063Z,96915.57
2019-04-14T11:15:10.867Z,96914.66
2019-04-14T11:20:10.101Z,96916.17
2019-04-14T11:25:06.500Z,96918.02
2019-04-14T11:30:01.163Z,96913.80
2019-04-14T11:35:00.258Z,96917.33
2019-04-14T11:39:54.868Z,96922.10
2019-04-14T11:44:49.470Z,96923.81
2019-04-14T11:49:44.127Z,96915.08
2019-04-14T11:54:38.903Z,96921.38
2019-04-14T11:59:35.166Z,96921.66
2019-04-14T12:04:31.456Z,96923.84
2019-04-14T12:09:39.751Z,96931.40
2019-04-14T12:14:34.339Z,96935.03
2019-04-14T12:19:28.946Z,96943.84
2019-04-14T12:24:23.578Z,96948.06
2019-04-14T12:29:18.899Z,96955.24
2019-04-14T12:34:14.603Z,96957.95
2019-04-14T12:39:19.799Z,96963.09
2019-04-14T12:44:32.107Z,96959.97
2019-04-14T12:49:31.161Z,96956.75
2019-04-14T12:54:27.042Z,96966.29
2019-04-14T12:59:23.674Z,96959.67
2019-04-14T13:04:18.445Z,96958.74
2019-04-14T13:09:14.571Z,96964.06
2019-04-14T13:14:09.588Z,96967.01
2019-04-14T13:19:04.256Z,96962.00
2019-04-14T13:23:58.933Z,96969.61
2019-04-14T13:28:53.533Z,96968.62
2019-04-14T13:33:48.117Z,96965.91
2019-04-14T13:38:42.728Z,96972.05
2019-04-14T13:43:37.308Z,96977.57
2019-04-14T13:48:31.983Z,96983.75
2019-04-14T13:53:26.643Z,96991.78
2019-04-14T13:58:21.310Z,96983.31
2019-04-14T14:03:15.944Z,96981.89
2019-04-14T14:08:10.686Z,96988.89
2019-04-14T14:13:10.101Z,96996.17
2019-04-14T14:18:12.237Z,96996.75
2019-04-14T14:23:15.733Z,96995.61
2019-04-14T14:28:10.353Z,96985.66
2019-04-14T14:33:05.305Z,96985.77
2019-04-14T14:37:59.972Z,96995.62
2019-04-14T14:42:54.736Z,96991.49
2019-04-14T14:47:53.884Z,96993.77
2019-04-14T14:52:48.559Z,96992.52
2019-04-14T14:57:43.214Z,96993.14
2019-04-14T15:02:38.072Z,96996.58
2019-04-14T15:07:32.694Z,97004.98
2019-04-14T15:12:27.356Z,97004.87
2019-04-14T15:17:22.101Z,97012.70
2019-04-14T15:22:16.793Z,97010.91
2019-04-14T15:27:11.511Z,97014.31
2019-04-14T15:32:06.287Z,97015.83
2019-04-14T15:37:01.238Z,97011.09
2019-04-14T15:41:56.083Z,97016.31
2019-04-14T15:46:50.955Z,97014.48
2019-04-14T15:51:45.812Z,97022.34
2019-04-14T15:56:49.493Z,97026.15
2019-04-14T16:01:57.684Z,97027.73
2019-04-14T16:06:56.724Z,97030.89
2019-04-14T16:12:11.004Z,97039.28
2019-04-14T16:17:13.278Z,97040.55
2019-04-14T16:22:08.261Z,97044.97
2019-04-14T16:27:23.107Z,97051.85
2019-04-14T16:32:25.465Z,97052.63
2019-04-14T16:37:20.443Z,97060.90
2019-04-14T16:42:15.350Z,97063.14
2019-04-14T16:47:10.329Z,97058.94
2019-04-14T16:52:11.177Z,97053.30
2019-04-14T16:57:09.029Z,97062.37
2019-04-14T17:02:10.702Z,97066.76
2019-04-14T17:07:00.579Z,97064.69
2019-04-14T17:11:55.502Z,97072.02
2019-04-14T17:16:57.631Z,97074.52
2019-04-14T17:21:57.160Z,97080.92
2019-04-14T17:26:59.161Z,97080.92
2019-04-14T17:32:05.523Z,97085.93
2019-04-14T17:37:05.919Z,97099.64
2019-04-14T17:42:18.675Z,97108.88
2019-04-14T17:47:16.042Z,97119.05
2019-04-14T17:52:28.638Z,97119.92
2019-04-14T17:57:26.742Z,97130.82
2019-04-14T18:02:31.913Z,97134.45
2019-04-14T18:07:37.047Z,97146.97
2019-04-14T18:12:33.621Z,97148.20
2019-04-14T18:17:30.213Z,97156.22
2019-04-14T18:22:25.212Z,97164.47
2019-04-14T18:27:20.125Z,97166.72
2019-04-14T18:32:16.727Z,97172.48
2019-04-14T18:37:29.231Z,97182.78
2019-04-14T18:42:25.777Z,97191.45
2019-04-14T18:47:22.329Z,97193.50
2019-04-14T18:52:18.876Z,97189.60
2019-04-14T18:57:18.108Z,97202.48
2019-04-14T19:02:13.181Z,97204.21
2019-04-14T19:07:08.094Z,97215.33
2019-04-14T19:12:20.701Z,97214.02
2019-04-14T19:17:19.628Z,97223.50
2019-04-14T19:22:14.544Z,97222.43
2019-04-14T19:27:09.452Z,97229.89
2019-04-14T19:32:04.369Z,97234.46
2019-04-14T19:36:59.275Z,97242.53
2019-04-14T19:41:54.240Z,97235.70
2019-04-14T19:46:49.465Z,97249.89
2019-04-14T19:51:44.526Z,97247.73
2019-04-14T19:56:39.455Z,97261.77
2019-04-14T20:01:34.358Z,97267.48
2019-04-14T20:06:29.254Z,97276.48
2019-04-14T20:11:24.306Z,97280.70
2019-04-14T20:16:30.616Z,97280.33
2019-04-14T20:21:41.898Z,97281.69
2019-04-14T20:26:53.166Z,97283.56
2019-04-14T20:31:52.674Z,97287.59
2019-04-14T20:36:47.643Z,97294.10
2019-04-14T20:41:42.824Z,97283.88
2019-04-14T20:46:37.620Z,97289.66
2019-04-14T20:51:32.570Z,97296.42
2019-04-14T20:56:27.264Z,97298.77
2019-04-14T21:01:22.320Z,97303.98
2019-04-14T21:06:34.942Z,97299.19
2019-04-14T21:11:31.326Z,97308.42
2019-04-14T21:16:27.564Z,97308.97
2019-04-14T21:21:40.120Z,97315.22
2019-04-14T21:26:36.344Z,97315.44
2019-04-14T21:31:33.034Z,97318.67
2019-04-14T21:36:32.221Z,97320.61
2019-04-14T21:41:31.342Z,97321.15
2019-04-14T21:46:25.951Z,97326.08
2019-04-14T21:51:22.179Z,97319.18
2019-04-14T21:56:16.781Z,97321.81
2019-04-14T22:01:36.209Z,97319.21
2019-04-14T22:06:35.140Z,97331.16
2019-04-14T22:11:29.802Z,97332.45
2019-04-14T22:16:24.401Z,97336.89
2019-04-14T22:21:19.264Z,97341.59
2019-04-14T22:26:25.490Z,97337.59
2019-04-14T22:31:10.352Z,97344.42
2019-04-14T22:36:05.235Z,97340.00
2019-04-14T22:40:59.832Z,97333.27
2019-04-14T22:45:54.430Z,97331.83
2019-04-14T22:50:49.011Z,97336.05
2019-04-14T22:55:43.597Z,97338.06
2019-04-14T23:00:40.849Z,97330.77
2019-04-14T23:05:49.219Z,97322.04
2019-04-14T23:10:49.517Z,97319.02
2019-04-14T23:15:54.428Z,97313.23
2019-04-14T23:21:06.935Z,97310.30
2019-04-14T23:26:01.525Z,97318.83
2019-04-14T23:30:56.111Z,97315.32
2019-04-14T23:35:50.924Z,97318.64
2019-04-14T23:40:45.592Z,97318.94
2019-04-14T23:45:40.241Z,97323.05
2019-04-14T23:50:34.846Z,97329.02
2019-04-14T23:55:29.436Z,97315.27
